Eureka の空港の天気 - METARとTAF

Eureka ( CWEU / ) - カナダ ヌナブト準州Eureka
飛行場実況気象(Metar)
観測時間10/25 14:00 CDT (10/25 19:00 UTC)
風向・風速北西 1m/s
視程10km以上
天気現象弱い雪
少しの雲 雲底高度 1980m
少しの雲 雲底高度 2900m
全天の8割程度の雲 雲底高度 3960m
全天の8割程度の雲 雲底高度 6710m
気温-26℃
湿度76%
気圧1006.6hPa
METARCWEU 251900Z 32002KT 15SM -SN FEW065 FEW095 BKN130 BKN220 M26/M29 A2968 RMK SC1AC1AC5CI1 AC TR CI TR SLP066
過去の天気等 Google飛行場航空写真 Wunderground天気予報

過去48時間のMETAR

飛行場予報(TAF)
データがありません